createdAt,value
2022-11-18T00:01:11.687Z,23.30
2022-11-18T00:03:46.149Z,29.90
2022-11-18T00:06:20.415Z,45.40
2022-11-18T00:08:53.042Z,26.40
2022-11-18T00:11:44.999Z,21.60
2022-11-18T00:14:20.400Z,18.20
2022-11-18T00:16:55.762Z,20.90
2022-11-18T00:19:30.156Z,21.80
2022-11-18T00:22:02.685Z,22.40
2022-11-18T00:24:35.133Z,20.20
2022-11-18T00:27:07.533Z,17.80
2022-11-18T00:29:40.052Z,12.10
2022-11-18T00:32:12.234Z,12.30
2022-11-18T00:34:44.192Z,15.50
2022-11-18T00:37:16.302Z,14.00
2022-11-18T00:39:48.243Z,13.40
2022-11-18T00:42:38.072Z,11.50
2022-11-18T00:45:11.426Z,12.20
2022-11-18T00:47:43.382Z,10.80
2022-11-18T00:50:16.185Z,11.70
2022-11-18T00:52:48.469Z,11.40
2022-11-18T00:55:20.601Z,10.10
2022-11-18T00:57:52.513Z,9.80
2022-11-18T01:00:24.607Z,10.00
2022-11-18T01:02:56.543Z,10.30
2022-11-18T01:05:28.531Z,8.60
2022-11-18T01:08:00.445Z,9.20
2022-11-18T01:10:32.663Z,6.40
2022-11-18T01:13:23.989Z,7.90
2022-11-18T01:15:57.789Z,8.00
2022-11-18T01:18:32.049Z,8.70
2022-11-18T01:21:06.680Z,11.60
2022-11-18T01:23:38.671Z,8.80
2022-11-18T01:26:13.142Z,7.30
2022-11-18T01:28:45.749Z,7.20
2022-11-18T01:31:19.987Z,7.90
2022-11-18T01:33:52.379Z,7.90
2022-11-18T01:36:27.421Z,7.90
2022-11-18T01:41:29.992Z,7.40
2022-11-18T01:44:04.543Z,7.30
2022-11-18T01:46:36.863Z,7.80
2022-11-18T01:49:12.691Z,6.80
2022-11-18T01:51:49.455Z,9.70
2022-11-18T01:54:25.658Z,8.90
2022-11-18T01:57:00.947Z,7.10
2022-11-18T01:59:37.210Z,6.90
2022-11-18T02:02:12.734Z,7.20
2022-11-18T02:04:48.768Z,6.90
2022-11-18T02:07:22.416Z,6.80
2022-11-18T02:09:57.327Z,6.80
2022-11-18T02:12:29.419Z,7.90
2022-11-18T02:15:02.585Z,7.00
2022-11-18T02:17:46.125Z,7.10
2022-11-18T02:20:32.328Z,6.40
2022-11-18T02:23:33.311Z,7.20
2022-11-18T02:26:47.080Z,6.40
2022-11-18T02:29:22.372Z,6.20
2022-11-18T02:31:59.950Z,5.70
2022-11-18T02:34:50.106Z,6.00
2022-11-18T02:37:32.599Z,5.60
2022-11-18T02:40:09.548Z,6.10
2022-11-18T02:42:44.557Z,5.30
2022-11-18T02:47:51.506Z,5.90
2022-11-18T02:50:28.562Z,5.80
2022-11-18T02:53:04.467Z,5.60
2022-11-18T02:55:39.864Z,5.50
2022-11-18T02:58:13.235Z,5.40
2022-11-18T03:00:45.760Z,5.80
2022-11-18T03:03:29.321Z,5.00
2022-11-18T03:06:10.680Z,6.30
2022-11-18T03:08:48.455Z,5.10
2022-11-18T03:11:24.082Z,5.30
2022-11-18T03:14:11.583Z,5.60
2022-11-18T03:16:55.297Z,5.10
2022-11-18T03:19:35.863Z,5.60
2022-11-18T03:22:17.450Z,4.30
2022-11-18T03:24:57.210Z,5.40
2022-11-18T03:27:34.822Z,4.70
2022-11-18T03:30:11.668Z,4.80
2022-11-18T03:32:46.732Z,4.80
2022-11-18T03:37:53.728Z,6.90
2022-11-18T03:40:30.556Z,6.60
2022-11-18T03:43:07.310Z,5.60
2022-11-18T03:45:43.648Z,4.70
2022-11-18T03:48:19.450Z,5.10
2022-11-18T03:50:56.715Z,5.00
2022-11-18T03:53:32.130Z,4.10
2022-11-18T03:56:16.911Z,4.80
2022-11-18T04:01:33.265Z,5.10
2022-11-18T04:04:06.153Z,4.90
2022-11-18T04:06:43.198Z,4.50
2022-11-18T04:09:20.221Z,4.00
2022-11-18T04:12:05.290Z,5.80
2022-11-18T04:14:39.338Z,5.80
2022-11-18T04:17:14.410Z,5.30
2022-11-18T04:19:46.712Z,5.40
2022-11-18T04:22:19.464Z,5.20
2022-11-18T04:24:51.386Z,4.30
2022-11-18T04:27:23.289Z,8.10
2022-11-18T04:29:55.200Z,6.30
2022-11-18T04:32:27.137Z,7.60
2022-11-18T04:34:59.143Z,5.70
2022-11-18T04:37:31.195Z,5.30
2022-11-18T04:40:03.157Z,5.70
2022-11-18T04:42:35.430Z,5.90
2022-11-18T04:45:10.011Z,5.60
2022-11-18T04:47:42.333Z,5.90
2022-11-18T04:50:14.363Z,10.50
2022-11-18T04:52:46.530Z,11.80
2022-11-18T04:55:18.811Z,29.10
2022-11-18T04:57:50.766Z,24.70
2022-11-18T05:00:23.576Z,8.10
2022-11-18T05:02:55.641Z,8.40
2022-11-18T05:05:27.470Z,8.00
2022-11-18T05:07:59.823Z,9.90
2022-11-18T05:10:31.760Z,17.90
2022-11-18T05:13:03.672Z,11.30
2022-11-18T05:15:35.609Z,13.40
2022-11-18T05:18:08.112Z,12.80
2022-11-18T05:20:41.869Z,8.60
2022-11-18T05:23:13.908Z,11.40
2022-11-18T05:25:45.896Z,18.60
2022-11-18T05:28:17.937Z,15.70
2022-11-18T05:30:49.875Z,22.20
2022-11-18T05:33:21.811Z,13.50
2022-11-18T05:35:55.258Z,13.60
2022-11-18T05:38:27.404Z,10.10
2022-11-18T05:40:59.313Z,9.80
2022-11-18T05:43:32.176Z,13.80
2022-11-18T05:46:05.057Z,20.20
2022-11-18T05:48:36.971Z,14.90
2022-11-18T05:51:09.356Z,15.50
2022-11-18T05:53:41.256Z,20.30
2022-11-18T05:56:20.592Z,22.90
2022-11-18T05:58:52.532Z,34.00
2022-11-18T06:01:28.769Z,32.90
2022-11-18T06:04:03.035Z,36.20
2022-11-18T06:06:35.006Z,27.00
2022-11-18T06:09:09.559Z,22.90
2022-11-18T06:11:44.373Z,116.30
2022-11-18T06:14:20.874Z,81.00
2022-11-18T06:16:57.554Z,63.00
2022-11-18T06:19:29.949Z,61.30
2022-11-18T06:22:02.319Z,22.00
2022-11-18T06:24:34.587Z,12.40
2022-11-18T06:27:07.169Z,16.30
2022-11-18T06:29:39.080Z,20.70
2022-11-18T06:32:11.253Z,13.40
2022-11-18T06:34:43.186Z,27.80
2022-11-18T06:37:20.753Z,18.00
2022-11-18T06:39:53.028Z,71.80
2022-11-18T06:42:39.069Z,25.30
2022-11-18T06:45:13.976Z,11.40
2022-11-18T06:50:17.011Z,34.80
2022-11-18T06:52:49.253Z,27.40
2022-11-18T06:55:21.294Z,27.90
2022-11-18T06:57:53.232Z,23.10
2022-11-18T07:00:25.513Z,22.00
2022-11-18T07:02:57.439Z,16.10
2022-11-18T07:05:29.353Z,12.30
2022-11-18T07:08:01.267Z,11.00
2022-11-18T07:10:33.443Z,11.50
2022-11-18T07:13:05.422Z,14.20
2022-11-18T07:15:37.506Z,13.50
2022-11-18T07:18:09.425Z,14.60
2022-11-18T07:20:41.363Z,30.20
2022-11-18T07:23:13.250Z,19.10
2022-11-18T07:25:45.498Z,13.90
2022-11-18T07:28:17.458Z,10.60
2022-11-18T07:30:49.448Z,10.00
2022-11-18T07:33:21.308Z,10.80
2022-11-18T07:35:53.223Z,16.10
2022-11-18T07:38:25.465Z,83.80
2022-11-18T07:40:57.713Z,70.80
2022-11-18T07:43:29.622Z,36.50
2022-11-18T07:46:09.572Z,17.30
2022-11-18T07:48:41.970Z,16.60
2022-11-18T07:51:14.932Z,17.00
2022-11-18T07:53:47.434Z,27.80
2022-11-18T07:56:19.578Z,19.10
2022-11-18T07:58:55.535Z,13.30
2022-11-18T08:01:29.271Z,20.30
2022-11-18T08:04:07.780Z,12.20
2022-11-18T08:06:40.665Z,9.50
2022-11-18T08:09:13.501Z,8.10
2022-11-18T08:11:45.413Z,7.50
2022-11-18T08:14:17.299Z,16.60
2022-11-18T08:16:49.315Z,10.10
2022-11-18T08:19:21.365Z,10.30
2022-11-18T08:21:53.957Z,15.30
2022-11-18T08:24:26.510Z,12.60
2022-11-18T08:26:58.653Z,9.70
2022-11-18T08:29:31.665Z,9.90
2022-11-18T08:32:03.679Z,6.50
2022-11-18T08:34:36.130Z,11.00
2022-11-18T08:37:08.067Z,15.40
2022-11-18T08:39:40.187Z,11.20
2022-11-18T08:42:13.044Z,8.80
2022-11-18T08:44:44.898Z,19.00
2022-11-18T08:47:16.894Z,10.90
2022-11-18T08:49:48.883Z,11.50
2022-11-18T08:52:20.796Z,9.30
2022-11-18T08:54:52.784Z,9.90
2022-11-18T08:57:24.823Z,9.50
2022-11-18T08:59:57.249Z,20.30
2022-11-18T09:02:29.287Z,13.80
2022-11-18T09:05:01.124Z,18.00
2022-11-18T09:07:33.277Z,15.50
2022-11-18T09:10:06.013Z,23.80
2022-11-18T09:12:37.960Z,35.40
2022-11-18T09:15:13.919Z,21.90
2022-11-18T09:17:46.366Z,31.10
2022-11-18T09:20:22.853Z,43.80
2022-11-18T09:22:54.903Z,24.90
2022-11-18T09:25:26.865Z,12.50
2022-11-18T09:27:59.047Z,18.70
2022-11-18T09:30:30.972Z,14.80
2022-11-18T09:33:02.893Z,20.70
2022-11-18T09:35:35.055Z,20.20
2022-11-18T09:38:07.016Z,18.20
2022-11-18T09:40:45.814Z,66.80
2022-11-18T09:43:28.326Z,35.00
2022-11-18T09:46:09.453Z,13.70
2022-11-18T09:48:58.851Z,14.70
2022-11-18T09:51:35.653Z,15.80
2022-11-18T09:54:09.766Z,18.30
2022-11-18T09:56:42.675Z,25.20
2022-11-18T09:59:16.842Z,13.30
2022-11-18T10:01:49.909Z,8.70
2022-11-18T10:04:23.636Z,8.80
2022-11-18T10:06:55.749Z,12.80
2022-11-18T10:09:37.986Z,17.00
2022-11-18T10:12:24.102Z,21.30
2022-11-18T10:15:12.425Z,31.50
2022-11-18T10:17:57.195Z,19.60
2022-11-18T10:20:41.056Z,23.90
2022-11-18T10:23:18.148Z,22.90
2022-11-18T10:25:50.078Z,9.00
2022-11-18T10:28:25.349Z,5.40
2022-11-18T10:31:04.705Z,5.20
2022-11-18T10:33:37.973Z,5.60
2022-11-18T10:36:27.886Z,19.20
2022-11-18T10:39:10.880Z,33.10
2022-11-18T10:41:48.474Z,47.90
2022-11-18T10:44:33.086Z,78.10
2022-11-18T10:47:24.966Z,24.20
2022-11-18T10:49:58.875Z,21.30
2022-11-18T10:52:31.785Z,19.80
2022-11-18T10:55:24.817Z,9.80
2022-11-18T10:58:04.259Z,20.70
2022-11-18T11:00:48.180Z,20.30
2022-11-18T11:03:36.193Z,12.60
2022-11-18T11:06:38.650Z,16.30
2022-11-18T11:09:27.428Z,17.50
2022-11-18T11:12:03.282Z,12.70
2022-11-18T11:14:46.338Z,5.30
2022-11-18T11:17:20.996Z,13.00
2022-11-18T11:20:03.004Z,11.40
2022-11-18T11:22:35.276Z,12.70
2022-11-18T11:25:14.125Z,19.70
2022-11-18T11:30:53.614Z,9.50
2022-11-18T11:33:43.547Z,18.60
2022-11-18T11:36:32.970Z,15.70
2022-11-18T11:39:29.816Z,11.90
2022-11-18T11:42:12.045Z,12.40
2022-11-18T11:44:59.390Z,16.50
2022-11-18T11:47:50.208Z,15.70
2022-11-18T11:50:29.664Z,9.20
2022-11-18T11:53:16.065Z,19.20
2022-11-18T11:56:03.160Z,10.30
2022-11-18T11:58:54.177Z,13.10
2022-11-18T12:01:32.865Z,9.80
2022-11-18T12:04:16.306Z,8.20
2022-11-18T12:06:52.735Z,9.80
2022-11-18T12:09:35.977Z,9.00
2022-11-18T12:12:27.618Z,4.70
2022-11-18T12:15:08.211Z,8.80
2022-11-18T12:17:48.133Z,8.40
2022-11-18T12:20:41.423Z,6.90
2022-11-18T12:23:15.922Z,9.10
2022-11-18T12:25:58.366Z,6.00
2022-11-18T12:28:33.521Z,11.60
2022-11-18T12:31:33.590Z,7.90
2022-11-18T12:34:33.073Z,8.40
2022-11-18T12:37:36.039Z,14.70
2022-11-18T12:40:09.800Z,24.40
2022-11-18T12:43:04.773Z,21.90
2022-11-18T12:46:00.189Z,13.20
2022-11-18T12:48:42.926Z,8.30
2022-11-18T12:51:46.816Z,7.30
2022-11-18T12:54:29.173Z,27.90
2022-11-18T12:57:03.772Z,57.40
2022-11-18T12:59:39.190Z,15.00
2022-11-18T13:02:25.900Z,16.40
2022-11-18T13:05:09.903Z,14.80
2022-11-18T13:08:06.665Z,13.70
2022-11-18T13:10:45.489Z,8.10
2022-11-18T13:13:26.823Z,8.30
2022-11-18T13:16:23.340Z,7.70
2022-11-18T13:18:56.328Z,7.80
2022-11-18T13:21:48.460Z,10.20
2022-11-18T13:24:22.344Z,16.50
2022-11-18T13:26:59.382Z,9.00
2022-11-18T13:29:39.712Z,8.60
2022-11-18T13:32:23.212Z,8.50
2022-11-18T13:34:57.234Z,9.50
2022-11-18T13:37:31.667Z,8.40
2022-11-18T13:40:04.030Z,30.90
2022-11-18T13:42:35.991Z,24.00
2022-11-18T13:45:14.179Z,12.00
2022-11-18T13:47:49.670Z,9.30
2022-11-18T13:50:31.440Z,11.40
2022-11-18T13:53:13.232Z,15.90
2022-11-18T13:55:50.265Z,29.50
2022-11-18T13:59:02.773Z,35.90
2022-11-18T14:01:31.543Z,43.70
2022-11-18T14:04:06.168Z,39.70
2022-11-18T14:06:39.771Z,35.50
2022-11-18T14:09:22.126Z,29.50
2022-11-18T14:12:07.543Z,16.70
2022-11-18T14:17:21.915Z,13.20
2022-11-18T14:19:56.760Z,32.50
2022-11-18T14:22:31.022Z,31.10
2022-11-18T14:25:06.138Z,34.10
2022-11-18T14:30:32.111Z,33.80
2022-11-18T14:33:12.953Z,41.50
2022-11-18T14:35:49.448Z,34.50
2022-11-18T14:41:43.633Z,83.30
2022-11-18T14:44:17.237Z,58.30
2022-11-18T14:46:52.422Z,30.50
2022-11-18T14:49:26.200Z,29.20
2022-11-18T14:51:58.509Z,24.00
2022-11-18T14:54:31.337Z,20.20
2022-11-18T14:57:06.205Z,27.50
2022-11-18T14:59:38.072Z,26.50
2022-11-18T15:02:16.411Z,19.50
2022-11-18T15:04:50.824Z,20.30
2022-11-18T15:07:24.080Z,20.40
2022-11-18T15:09:56.090Z,22.60
2022-11-18T15:12:28.052Z,25.80
2022-11-18T15:15:00.113Z,24.30
2022-11-18T15:17:35.728Z,21.70
2022-11-18T15:20:15.127Z,26.10
2022-11-18T15:22:47.273Z,39.40
2022-11-18T15:25:19.287Z,19.20
2022-11-18T15:27:51.229Z,18.90
2022-11-18T15:30:23.213Z,35.40
2022-11-18T15:32:55.125Z,15.50
2022-11-18T15:35:27.090Z,22.00
2022-11-18T15:37:58.951Z,43.00
2022-11-18T15:40:30.913Z,55.60
2022-11-18T15:43:02.832Z,40.60
2022-11-18T15:45:34.841Z,25.40
2022-11-18T15:48:07.034Z,18.70
2022-11-18T15:50:39.331Z,14.50
2022-11-18T15:53:11.271Z,15.70
2022-11-18T15:55:43.364Z,58.10
2022-11-18T15:58:17.292Z,23.10
2022-11-18T16:00:49.535Z,42.30
2022-11-18T16:03:21.847Z,26.70
2022-11-18T16:05:54.741Z,26.20
2022-11-18T16:08:26.658Z,76.90
2022-11-18T16:11:16.979Z,84.80
2022-11-18T16:13:48.816Z,55.50
2022-11-18T16:16:25.513Z,47.20
2022-11-18T16:18:58.424Z,24.50
2022-11-18T16:21:33.384Z,20.60
2022-11-18T16:24:07.750Z,64.10
2022-11-18T16:26:40.155Z,27.40
2022-11-18T16:29:15.313Z,48.30
2022-11-18T16:31:50.974Z,23.30
2022-11-18T16:34:24.744Z,21.50
2022-11-18T16:36:59.813Z,15.20
2022-11-18T16:39:31.819Z,12.80
2022-11-18T16:42:09.168Z,27.50
2022-11-18T16:44:41.302Z,22.70
2022-11-18T16:47:15.366Z,12.60
2022-11-18T16:49:47.407Z,15.90
2022-11-18T16:52:19.381Z,15.90
2022-11-18T16:54:52.461Z,7.90
2022-11-18T16:57:25.424Z,11.10
2022-11-18T16:59:57.356Z,12.20
2022-11-18T17:02:29.344Z,9.60
2022-11-18T17:05:01.300Z,11.10
2022-11-18T17:07:38.307Z,184.20
2022-11-18T17:10:20.647Z,1180.10
2022-11-18T17:12:52.945Z,654.30
2022-11-18T17:15:25.317Z,211.10
2022-11-18T17:17:58.076Z,112.30
2022-11-18T17:20:29.970Z,115.10
2022-11-18T17:23:01.872Z,139.90
2022-11-18T17:25:34.688Z,72.10
2022-11-18T17:28:06.823Z,510.80
2022-11-18T17:30:39.069Z,509.00
2022-11-18T17:33:11.032Z,258.50
2022-11-18T17:35:42.918Z,160.60
2022-11-18T17:38:15.132Z,402.70
2022-11-18T17:40:47.077Z,278.70
2022-11-18T17:43:19.964Z,154.00
2022-11-18T17:45:53.948Z,180.40
2022-11-18T17:48:27.189Z,85.30
2022-11-18T17:51:06.296Z,138.50
2022-11-18T17:53:43.207Z,104.10
2022-11-18T17:56:15.805Z,63.40
2022-11-18T17:58:49.512Z,62.10
2022-11-18T18:01:22.800Z,51.30
2022-11-18T18:03:54.871Z,61.80
2022-11-18T18:06:27.022Z,62.50
2022-11-18T18:09:00.076Z,59.70
2022-11-18T18:11:32.653Z,31.80
2022-11-18T18:14:13.869Z,27.10
2022-11-18T18:16:50.207Z,35.60
2022-11-18T18:19:24.212Z,43.20
2022-11-18T18:21:56.741Z,34.70
2022-11-18T18:24:28.752Z,25.90
2022-11-18T18:27:00.698Z,38.00
2022-11-18T18:29:33.013Z,24.90
2022-11-18T18:32:05.411Z,16.30
2022-11-18T18:34:37.348Z,15.90
2022-11-18T18:37:09.234Z,21.10
2022-11-18T18:39:41.274Z,26.30
2022-11-18T18:42:13.163Z,246.70
2022-11-18T18:45:02.814Z,168.20
2022-11-18T18:47:36.718Z,82.60
2022-11-18T18:50:10.742Z,58.80
2022-11-18T18:52:42.750Z,127.80
2022-11-18T18:55:14.739Z,101.20
2022-11-18T18:57:46.650Z,52.20
2022-11-18T19:00:19.991Z,35.50
2022-11-18T19:02:51.958Z,32.00
2022-11-18T19:05:39.085Z,28.50
2022-11-18T19:08:16.033Z,28.70
2022-11-18T19:10:48.220Z,31.50
2022-11-18T19:13:20.190Z,25.60
2022-11-18T19:15:52.311Z,36.30
2022-11-18T19:18:24.644Z,36.10
2022-11-18T19:20:56.619Z,33.30
2022-11-18T19:23:33.062Z,31.20
2022-11-18T19:26:05.672Z,63.80
2022-11-18T19:28:37.940Z,51.50
2022-11-18T19:31:14.133Z,41.70
2022-11-18T19:33:46.177Z,34.70
2022-11-18T19:36:18.992Z,31.40
2022-11-18T19:38:53.213Z,17.00
2022-11-18T19:41:25.126Z,27.40
2022-11-18T19:43:57.115Z,48.00
2022-11-18T19:46:31.575Z,39.00
2022-11-18T19:49:03.831Z,36.40
2022-11-18T19:51:37.103Z,31.60
2022-11-18T19:54:09.429Z,35.30
2022-11-18T19:56:41.395Z,36.70
2022-11-18T19:59:14.556Z,48.10
2022-11-18T20:01:46.624Z,41.60
2022-11-18T20:04:18.588Z,74.10
2022-11-18T20:06:50.804Z,64.50
2022-11-18T20:09:22.764Z,58.10
2022-11-18T20:11:54.682Z,56.10
2022-11-18T20:14:26.641Z,70.90
2022-11-18T20:17:10.007Z,61.80
2022-11-18T20:20:07.671Z,73.80
2022-11-18T20:22:39.915Z,116.80
2022-11-18T20:25:13.801Z,219.40
2022-11-18T20:27:45.789Z,185.40
2022-11-18T20:30:18.752Z,219.50
2022-11-18T20:32:50.816Z,415.60
2022-11-18T20:35:23.119Z,353.10
2022-11-18T20:37:55.383Z,200.10
2022-11-18T20:40:28.731Z,412.80
2022-11-18T20:43:16.158Z,435.40
2022-11-18T20:45:55.997Z,174.90
2022-11-18T20:48:28.443Z,107.10
2022-11-18T20:51:03.726Z,52.90
2022-11-18T20:53:37.987Z,36.90
2022-11-18T20:56:10.493Z,31.00
2022-11-18T20:58:42.935Z,40.70
2022-11-18T21:01:16.696Z,33.60
2022-11-18T21:03:53.181Z,28.90
2022-11-18T21:06:26.949Z,37.20
2022-11-18T21:09:00.263Z,38.00
2022-11-18T21:11:34.359Z,42.80
2022-11-18T21:14:23.809Z,58.20
2022-11-18T21:17:00.685Z,81.40
2022-11-18T21:19:33.983Z,97.80
2022-11-18T21:22:05.988Z,105.60
2022-11-18T21:24:38.032Z,93.30
2022-11-18T21:27:10.048Z,86.10
2022-11-18T21:29:42.929Z,97.30
2022-11-18T21:32:15.199Z,98.40
2022-11-18T21:34:47.265Z,88.90
2022-11-18T21:37:19.227Z,80.60
2022-11-18T21:39:51.218Z,111.00
2022-11-18T21:42:23.357Z,122.80
2022-11-18T21:44:55.662Z,157.90
2022-11-18T21:47:27.619Z,184.00
2022-11-18T21:49:59.508Z,174.90
2022-11-18T21:52:31.503Z,148.00
2022-11-18T21:55:03.497Z,136.00
2022-11-18T21:57:35.832Z,110.20
2022-11-18T22:00:10.254Z,95.20
2022-11-18T22:02:43.551Z,99.40
2022-11-18T22:05:15.991Z,85.20
2022-11-18T22:07:47.910Z,76.40
2022-11-18T22:10:20.242Z,62.10
2022-11-18T22:12:52.691Z,42.70
2022-11-18T22:15:25.285Z,34.20
2022-11-18T22:17:57.402Z,30.40
2022-11-18T22:20:29.262Z,29.60
2022-11-18T22:23:02.660Z,42.90
2022-11-18T22:25:34.927Z,30.80
2022-11-18T22:28:09.069Z,21.50
2022-11-18T22:30:41.418Z,119.30
2022-11-18T22:33:13.385Z,126.50
2022-11-18T22:35:45.346Z,50.20
2022-11-18T22:38:17.364Z,40.00
2022-11-18T22:40:49.630Z,37.30
2022-11-18T22:43:21.570Z,34.20
2022-11-18T22:46:01.547Z,133.10
2022-11-18T22:48:34.582Z,482.90
2022-11-18T22:51:08.108Z,150.20
2022-11-18T22:53:40.123Z,45.50
2022-11-18T22:56:14.747Z,33.60
2022-11-18T22:58:46.992Z,23.50
2022-11-18T23:01:20.851Z,21.60
2022-11-18T23:03:53.991Z,54.40
2022-11-18T23:06:25.979Z,94.80
2022-11-18T23:08:57.892Z,40.50
2022-11-18T23:11:47.468Z,23.30
2022-11-18T23:14:19.431Z,23.00
2022-11-18T23:16:51.371Z,20.70
2022-11-18T23:19:23.420Z,21.70
2022-11-18T23:21:55.756Z,28.00
2022-11-18T23:24:28.041Z,23.50
2022-11-18T23:27:00.050Z,78.10
2022-11-18T23:29:32.098Z,49.90
2022-11-18T23:32:04.636Z,39.50
2022-11-18T23:34:36.652Z,34.10
2022-11-18T23:37:08.640Z,43.50
2022-11-18T23:39:41.012Z,43.80
2022-11-18T23:42:12.974Z,33.90
2022-11-18T23:44:50.296Z,28.30
2022-11-18T23:47:22.380Z,47.90
2022-11-18T23:49:54.292Z,39.40
2022-11-18T23:52:26.384Z,32.00
2022-11-18T23:54:59.576Z,23.30
2022-11-18T23:57:31.490Z,31.60
